sensor_id;sensor_type;location;lat;lon;timestamp;temperature;humidity
56240;DHT22;42154;51.992;5.896;2022-10-15T00:01:15;12.90;99.90
56240;DHT22;42154;51.992;5.896;2022-10-15T00:03:42;12.90;99.90
56240;DHT22;42154;51.992;5.896;2022-10-15T00:06:14;12.80;99.90
56240;DHT22;42154;51.992;5.896;2022-10-15T00:08:40;12.70;99.90
56240;DHT22;42154;51.992;5.896;2022-10-15T00:11:09;12.70;99.90
56240;DHT22;42154;51.992;5.896;2022-10-15T00:13:36;12.70;99.90
56240;DHT22;42154;51.992;5.896;2022-10-15T00:16:03;12.60;99.90
56240;DHT22;42154;51.992;5.896;2022-10-15T00:18:29;12.60;99.90
56240;DHT22;42154;51.992;5.896;2022-10-15T00:20:55;12.60;99.90
56240;DHT22;42154;51.992;5.896;2022-10-15T00:23:21;12.50;99.90
56240;DHT22;42154;51.992;5.896;2022-10-15T00:25:46;12.50;99.90
56240;DHT22;42154;51.992;5.896;2022-10-15T00:28:12;12.50;99.90
56240;DHT22;42154;51.992;5.896;2022-10-15T00:30:38;12.40;99.90
56240;DHT22;42154;51.992;5.896;2022-10-15T00:33:03;12.40;99.90
56240;DHT22;42154;51.992;5.896;2022-10-15T00:35:29;12.40;99.90
56240;DHT22;42154;51.992;5.896;2022-10-15T00:37:55;12.40;99.90
56240;DHT22;42154;51.992;5.896;2022-10-15T00:40:20;12.40;99.90
56240;DHT22;42154;51.992;5.896;2022-10-15T00:42:47;12.30;99.90
56240;DHT22;42154;51.992;5.896;2022-10-15T00:45:14;12.30;99.90
56240;DHT22;42154;51.992;5.896;2022-10-15T00:47:44;12.30;99.90
56240;DHT22;42154;51.992;5.896;2022-10-15T00:50:17;12.30;99.90
56240;DHT22;42154;51.992;5.896;2022-10-15T00:55:24;12.20;99.90
56240;DHT22;42154;51.992;5.896;2022-10-15T00:57:51;12.10;99.90
56240;DHT22;42154;51.992;5.896;2022-10-15T01:00:18;12.10;99.90
56240;DHT22;42154;51.992;5.896;2022-10-15T01:02:45;12.00;99.90
56240;DHT22;42154;51.992;5.896;2022-10-15T01:05:12;12.00;99.90
56240;DHT22;42154;51.992;5.896;2022-10-15T01:07:39;11.90;99.90
56240;DHT22;42154;51.992;5.896;2022-10-15T01:10:06;11.90;99.90
56240;DHT22;42154;51.992;5.896;2022-10-15T01:12:57;11.90;99.90
56240;DHT22;42154;51.992;5.896;2022-10-15T01:15:54;11.90;99.90
56240;DHT22;42154;51.992;5.896;2022-10-15T01:18:52;11.90;99.90
56240;DHT22;42154;51.992;5.896;2022-10-15T01:32:27;11.90;99.90
56240;DHT22;42154;51.992;5.896;2022-10-15T01:40:59;12.00;99.90
56240;DHT22;42154;51.992;5.896;2022-10-15T01:43:59;12.10;99.90
56240;DHT22;42154;51.992;5.896;2022-10-15T01:46:45;12.10;99.90
56240;DHT22;42154;51.992;5.896;2022-10-15T01:49:20;12.10;99.90
56240;DHT22;42154;51.992;5.896;2022-10-15T01:51:50;12.10;99.90
56240;DHT22;42154;51.992;5.896;2022-10-15T01:54:18;12.10;99.90
56240;DHT22;42154;51.992;5.896;2022-10-15T01:56:49;12.10;99.90
56240;DHT22;42154;51.992;5.896;2022-10-15T01:59:22;12.20;99.90
56240;DHT22;42154;51.992;5.896;2022-10-15T02:01:48;12.20;99.90
56240;DHT22;42154;51.992;5.896;2022-10-15T02:04:22;12.20;99.90
56240;DHT22;42154;51.992;5.896;2022-10-15T02:06:53;12.20;99.90
56240;DHT22;42154;51.992;5.896;2022-10-15T02:09:24;12.20;99.90
56240;DHT22;42154;51.992;5.896;2022-10-15T02:14:53;12.30;99.90
56240;DHT22;42154;51.992;5.896;2022-10-15T02:17:34;12.30;99.90
56240;DHT22;42154;51.992;5.896;2022-10-15T02:20:18;12.30;99.90
56240;DHT22;42154;51.992;5.896;2022-10-15T02:25:23;12.30;99.90
56240;DHT22;42154;51.992;5.896;2022-10-15T02:27:51;12.30;99.90
56240;DHT22;42154;51.992;5.896;2022-10-15T02:30:19;12.30;99.90
56240;DHT22;42154;51.992;5.896;2022-10-15T02:32:50;12.40;99.90
56240;DHT22;42154;51.992;5.896;2022-10-15T02:35:20;12.30;99.90
56240;DHT22;42154;51.992;5.896;2022-10-15T02:37:49;12.30;99.90
56240;DHT22;42154;51.992;5.896;2022-10-15T02:40:21;12.40;99.90
56240;DHT22;42154;51.992;5.896;2022-10-15T02:42:52;12.30;99.90
56240;DHT22;42154;51.992;5.896;2022-10-15T02:45:18;12.30;99.90
56240;DHT22;42154;51.992;5.896;2022-10-15T02:47:44;12.30;99.90
56240;DHT22;42154;51.992;5.896;2022-10-15T02:50:09;12.20;99.90
56240;DHT22;42154;51.992;5.896;2022-10-15T02:52:35;12.20;99.90
56240;DHT22;42154;51.992;5.896;2022-10-15T02:55:01;12.20;99.90
56240;DHT22;42154;51.992;5.896;2022-10-15T02:57:27;12.20;99.90
56240;DHT22;42154;51.992;5.896;2022-10-15T02:59:52;12.30;99.90
56240;DHT22;42154;51.992;5.896;2022-10-15T03:02:18;12.30;99.90
56240;DHT22;42154;51.992;5.896;2022-10-15T03:04:44;12.30;99.90
56240;DHT22;42154;51.992;5.896;2022-10-15T03:07:10;12.20;99.90
56240;DHT22;42154;51.992;5.896;2022-10-15T03:09:37;12.30;99.90
56240;DHT22;42154;51.992;5.896;2022-10-15T03:12:04;12.20;99.90
56240;DHT22;42154;51.992;5.896;2022-10-15T03:14:31;12.20;99.90
56240;DHT22;42154;51.992;5.896;2022-10-15T03:16:58;12.10;99.90
56240;DHT22;42154;51.992;5.896;2022-10-15T03:19:25;12.10;99.90
56240;DHT22;42154;51.992;5.896;2022-10-15T03:21:52;12.10;99.90
56240;DHT22;42154;51.992;5.896;2022-10-15T03:24:18;12.00;99.90
56240;DHT22;42154;51.992;5.896;2022-10-15T03:26:44;12.00;99.90
56240;DHT22;42154;51.992;5.896;2022-10-15T03:29:10;12.00;99.90
56240;DHT22;42154;51.992;5.896;2022-10-15T03:31:52;12.00;99.90
56240;DHT22;42154;51.992;5.896;2022-10-15T03:34:20;12.00;99.90
56240;DHT22;42154;51.992;5.896;2022-10-15T03:36:46;12.00;99.90
56240;DHT22;42154;51.992;5.896;2022-10-15T03:39:12;12.10;99.90
56240;DHT22;42154;51.992;5.896;2022-10-15T03:41:39;12.10;99.90
56240;DHT22;42154;51.992;5.896;2022-10-15T03:44:05;12.10;99.90
56240;DHT22;42154;51.992;5.896;2022-10-15T03:46:33;12.10;99.90
56240;DHT22;42154;51.992;5.896;2022-10-15T03:49:00;12.10;99.90
56240;DHT22;42154;51.992;5.896;2022-10-15T03:51:26;12.20;99.90
56240;DHT22;42154;51.992;5.896;2022-10-15T03:53:57;12.20;99.90
56240;DHT22;42154;51.992;5.896;2022-10-15T03:56:23;12.20;99.90
56240;DHT22;42154;51.992;5.896;2022-10-15T03:58:49;12.20;99.90
56240;DHT22;42154;51.992;5.896;2022-10-15T04:01:16;12.20;99.90
56240;DHT22;42154;51.992;5.896;2022-10-15T04:03:43;12.30;99.90
56240;DHT22;42154;51.992;5.896;2022-10-15T04:06:09;12.30;99.90
56240;DHT22;42154;51.992;5.896;2022-10-15T04:08:35;12.30;99.90
56240;DHT22;42154;51.992;5.896;2022-10-15T04:11:16;12.30;99.90
56240;DHT22;42154;51.992;5.896;2022-10-15T04:13:43;12.30;99.90
56240;DHT22;42154;51.992;5.896;2022-10-15T04:16:12;12.30;99.90
56240;DHT22;42154;51.992;5.896;2022-10-15T04:18:38;12.30;99.90
56240;DHT22;42154;51.992;5.896;2022-10-15T04:21:04;12.30;99.90
56240;DHT22;42154;51.992;5.896;2022-10-15T04:23:31;12.40;99.90
56240;DHT22;42154;51.992;5.896;2022-10-15T04:26:23;12.40;99.90
56240;DHT22;42154;51.992;5.896;2022-10-15T04:28:49;12.40;99.90
56240;DHT22;42154;51.992;5.896;2022-10-15T04:31:16;12.30;99.90
56240;DHT22;42154;51.992;5.896;2022-10-15T04:33:42;12.40;99.90
56240;DHT22;42154;51.992;5.896;2022-10-15T04:36:12;12.40;99.90
56240;DHT22;42154;51.992;5.896;2022-10-15T04:39:04;12.40;99.90
56240;DHT22;42154;51.992;5.896;2022-10-15T04:41:36;12.40;99.90
56240;DHT22;42154;51.992;5.896;2022-10-15T04:44:06;12.30;99.90
56240;DHT22;42154;51.992;5.896;2022-10-15T04:46:32;12.30;99.90
56240;DHT22;42154;51.992;5.896;2022-10-15T04:49:03;12.30;99.90
56240;DHT22;42154;51.992;5.896;2022-10-15T04:51:29;12.30;99.90
56240;DHT22;42154;51.992;5.896;2022-10-15T04:54:02;12.40;99.90
56240;DHT22;42154;51.992;5.896;2022-10-15T04:56:29;12.30;99.90
56240;DHT22;42154;51.992;5.896;2022-10-15T04:58:55;12.40;99.90
56240;DHT22;42154;51.992;5.896;2022-10-15T05:01:24;12.40;99.90
56240;DHT22;42154;51.992;5.896;2022-10-15T05:03:59;12.40;99.90
56240;DHT22;42154;51.992;5.896;2022-10-15T05:06:25;12.40;99.90
56240;DHT22;42154;51.992;5.896;2022-10-15T05:08:56;12.50;99.90
56240;DHT22;42154;51.992;5.896;2022-10-15T05:11:27;12.50;99.90
56240;DHT22;42154;51.992;5.896;2022-10-15T05:13:55;12.40;99.90
56240;DHT22;42154;51.992;5.896;2022-10-15T05:16:24;12.50;99.90
56240;DHT22;42154;51.992;5.896;2022-10-15T05:18:54;12.50;99.90
56240;DHT22;42154;51.992;5.896;2022-10-15T05:21:20;12.50;99.90
56240;DHT22;42154;51.992;5.896;2022-10-15T05:23:50;12.60;99.90
56240;DHT22;42154;51.992;5.896;2022-10-15T05:26:27;12.60;99.90
56240;DHT22;42154;51.992;5.896;2022-10-15T05:28:55;12.60;99.90
56240;DHT22;42154;51.992;5.896;2022-10-15T05:31:28;12.60;99.90
56240;DHT22;42154;51.992;5.896;2022-10-15T05:34:14;12.60;99.90
56240;DHT22;42154;51.992;5.896;2022-10-15T05:36:49;12.60;99.90
56240;DHT22;42154;51.992;5.896;2022-10-15T05:39:15;12.70;99.90
56240;DHT22;42154;51.992;5.896;2022-10-15T05:41:43;12.70;99.90
56240;DHT22;42154;51.992;5.896;2022-10-15T05:44:08;12.70;99.90
56240;DHT22;42154;51.992;5.896;2022-10-15T05:46:34;12.80;99.90
56240;DHT22;42154;51.992;5.896;2022-10-15T05:49:00;12.80;99.90
56240;DHT22;42154;51.992;5.896;2022-10-15T05:51:27;12.80;99.90
56240;DHT22;42154;51.992;5.896;2022-10-15T05:54:00;12.80;99.90
56240;DHT22;42154;51.992;5.896;2022-10-15T05:56:26;12.80;99.90
56240;DHT22;42154;51.992;5.896;2022-10-15T05:58:52;12.80;99.90
56240;DHT22;42154;51.992;5.896;2022-10-15T06:01:21;12.90;99.90
56240;DHT22;42154;51.992;5.896;2022-10-15T06:03:50;12.90;99.90
56240;DHT22;42154;51.992;5.896;2022-10-15T06:06:17;12.90;99.90
56240;DHT22;42154;51.992;5.896;2022-10-15T06:08:43;12.90;99.90
56240;DHT22;42154;51.992;5.896;2022-10-15T06:11:09;12.90;99.90
56240;DHT22;42154;51.992;5.896;2022-10-15T06:13:37;12.90;99.90
56240;DHT22;42154;51.992;5.896;2022-10-15T06:16:03;13.00;99.90
56240;DHT22;42154;51.992;5.896;2022-10-15T06:18:29;13.00;99.90
56240;DHT22;42154;51.992;5.896;2022-10-15T06:20:56;13.00;99.90
56240;DHT22;42154;51.992;5.896;2022-10-15T06:23:21;13.00;99.90
56240;DHT22;42154;51.992;5.896;2022-10-15T06:25:49;13.10;99.90
56240;DHT22;42154;51.992;5.896;2022-10-15T06:28:15;13.10;99.90
56240;DHT22;42154;51.992;5.896;2022-10-15T06:30:42;13.10;99.90
56240;DHT22;42154;51.992;5.896;2022-10-15T06:33:08;13.20;99.90
56240;DHT22;42154;51.992;5.896;2022-10-15T06:35:34;13.20;99.90
56240;DHT22;42154;51.992;5.896;2022-10-15T06:38:01;13.20;99.90
56240;DHT22;42154;51.992;5.896;2022-10-15T06:40:27;13.20;99.90
56240;DHT22;42154;51.992;5.896;2022-10-15T06:42:53;13.20;99.90
56240;DHT22;42154;51.992;5.896;2022-10-15T06:45:18;13.30;99.90
56240;DHT22;42154;51.992;5.896;2022-10-15T06:47:44;13.30;99.90
56240;DHT22;42154;51.992;5.896;2022-10-15T06:50:10;13.30;99.90
56240;DHT22;42154;51.992;5.896;2022-10-15T06:52:36;13.40;99.90
56240;DHT22;42154;51.992;5.896;2022-10-15T06:55:03;13.40;99.90
56240;DHT22;42154;51.992;5.896;2022-10-15T06:57:29;13.40;99.90
56240;DHT22;42154;51.992;5.896;2022-10-15T06:59:55;13.40;99.90
56240;DHT22;42154;51.992;5.896;2022-10-15T07:02:22;13.50;99.90
56240;DHT22;42154;51.992;5.896;2022-10-15T07:04:49;13.50;99.90
56240;DHT22;42154;51.992;5.896;2022-10-15T07:07:19;13.50;99.90
56240;DHT22;42154;51.992;5.896;2022-10-15T07:09:45;13.50;99.90
56240;DHT22;42154;51.992;5.896;2022-10-15T07:12:12;13.50;99.90
56240;DHT22;42154;51.992;5.896;2022-10-15T07:14:38;13.60;99.90
56240;DHT22;42154;51.992;5.896;2022-10-15T07:17:04;13.60;99.90
56240;DHT22;42154;51.992;5.896;2022-10-15T07:19:30;13.60;99.90
56240;DHT22;42154;51.992;5.896;2022-10-15T07:21:56;13.70;99.90
56240;DHT22;42154;51.992;5.896;2022-10-15T07:24:21;13.70;99.90
56240;DHT22;42154;51.992;5.896;2022-10-15T07:26:47;13.70;99.90
56240;DHT22;42154;51.992;5.896;2022-10-15T07:29:13;13.70;99.90
56240;DHT22;42154;51.992;5.896;2022-10-15T07:31:38;13.70;99.90
56240;DHT22;42154;51.992;5.896;2022-10-15T07:34:05;13.80;99.90
56240;DHT22;42154;51.992;5.896;2022-10-15T07:36:31;13.80;99.90
56240;DHT22;42154;51.992;5.896;2022-10-15T07:38:56;13.80;99.90
56240;DHT22;42154;51.992;5.896;2022-10-15T07:41:22;13.90;99.90
56240;DHT22;42154;51.992;5.896;2022-10-15T07:43:51;13.90;99.90
56240;DHT22;42154;51.992;5.896;2022-10-15T07:46:17;13.90;99.90
56240;DHT22;42154;51.992;5.896;2022-10-15T07:48:43;14.00;99.90
56240;DHT22;42154;51.992;5.896;2022-10-15T07:51:10;14.00;99.90
56240;DHT22;42154;51.992;5.896;2022-10-15T07:53:36;14.00;99.90
56240;DHT22;42154;51.992;5.896;2022-10-15T07:56:04;14.00;99.90
56240;DHT22;42154;51.992;5.896;2022-10-15T07:58:35;14.00;99.90
56240;DHT22;42154;51.992;5.896;2022-10-15T08:01:03;14.00;99.90
56240;DHT22;42154;51.992;5.896;2022-10-15T08:03:29;14.10;99.90
56240;DHT22;42154;51.992;5.896;2022-10-15T08:05:58;14.10;99.90
56240;DHT22;42154;51.992;5.896;2022-10-15T08:08:24;14.10;99.90
56240;DHT22;42154;51.992;5.896;2022-10-15T08:10:50;14.20;99.90
56240;DHT22;42154;51.992;5.896;2022-10-15T08:13:16;14.20;99.90
56240;DHT22;42154;51.992;5.896;2022-10-15T08:15:44;14.30;99.90
56240;DHT22;42154;51.992;5.896;2022-10-15T08:18:09;14.40;99.90
56240;DHT22;42154;51.992;5.896;2022-10-15T08:20:38;14.50;99.90
56240;DHT22;42154;51.992;5.896;2022-10-15T08:23:05;14.60;99.90
56240;DHT22;42154;51.992;5.896;2022-10-15T08:25:38;14.60;99.90
56240;DHT22;42154;51.992;5.896;2022-10-15T08:28:05;14.70;99.90
56240;DHT22;42154;51.992;5.896;2022-10-15T08:30:31;14.80;99.90
56240;DHT22;42154;51.992;5.896;2022-10-15T08:32:56;14.90;99.90
56240;DHT22;42154;51.992;5.896;2022-10-15T08:35:22;14.90;99.90
56240;DHT22;42154;51.992;5.896;2022-10-15T08:37:48;15.00;99.90
56240;DHT22;42154;51.992;5.896;2022-10-15T08:40:17;15.20;99.90
56240;DHT22;42154;51.992;5.896;2022-10-15T08:42:45;15.30;99.90
56240;DHT22;42154;51.992;5.896;2022-10-15T08:45:21;15.40;99.90
56240;DHT22;42154;51.992;5.896;2022-10-15T08:48:11;15.50;99.90
56240;DHT22;42154;51.992;5.896;2022-10-15T08:50:58;15.60;99.90
56240;DHT22;42154;51.992;5.896;2022-10-15T08:53:27;15.60;99.90
56240;DHT22;42154;51.992;5.896;2022-10-15T08:55:57;15.60;99.90
56240;DHT22;42154;51.992;5.896;2022-10-15T09:01:58;15.70;99.90
56240;DHT22;42154;51.992;5.896;2022-10-15T09:04:46;15.70;99.90
56240;DHT22;42154;51.992;5.896;2022-10-15T09:07:38;15.80;99.90
56240;DHT22;42154;51.992;5.896;2022-10-15T09:10:30;15.70;99.90
56240;DHT22;42154;51.992;5.896;2022-10-15T09:13:34;15.70;99.90
56240;DHT22;42154;51.992;5.896;2022-10-15T09:16:17;15.70;99.90
56240;DHT22;42154;51.992;5.896;2022-10-15T09:18:49;15.70;99.90
56240;DHT22;42154;51.992;5.896;2022-10-15T09:21:23;15.70;99.90
56240;DHT22;42154;51.992;5.896;2022-10-15T09:23:51;15.70;99.90
56240;DHT22;42154;51.992;5.896;2022-10-15T09:26:35;15.80;99.90
56240;DHT22;42154;51.992;5.896;2022-10-15T09:32:12;15.90;99.90
56240;DHT22;42154;51.992;5.896;2022-10-15T09:43:09;16.00;99.90
56240;DHT22;42154;51.992;5.896;2022-10-15T09:45:37;16.10;99.90
56240;DHT22;42154;51.992;5.896;2022-10-15T09:48:13;16.10;99.90
56240;DHT22;42154;51.992;5.896;2022-10-15T09:50:46;16.20;99.90
56240;DHT22;42154;51.992;5.896;2022-10-15T09:56:37;16.30;99.90
56240;DHT22;42154;51.992;5.896;2022-10-15T09:59:04;16.30;99.90
56240;DHT22;42154;51.992;5.896;2022-10-15T10:01:31;16.30;99.90
56240;DHT22;42154;51.992;5.896;2022-10-15T10:04:28;16.30;99.90
56240;DHT22;42154;51.992;5.896;2022-10-15T10:07:03;16.30;99.90
56240;DHT22;42154;51.992;5.896;2022-10-15T10:09:35;16.20;99.90
56240;DHT22;42154;51.992;5.896;2022-10-15T10:12:30;16.20;99.90
56240;DHT22;42154;51.992;5.896;2022-10-15T10:17:54;16.10;99.90
56240;DHT22;42154;51.992;5.896;2022-10-15T10:20:28;16.20;99.90
56240;DHT22;42154;51.992;5.896;2022-10-15T10:23:02;16.20;99.90
56240;DHT22;42154;51.992;5.896;2022-10-15T10:25:37;16.30;99.90
56240;DHT22;42154;51.992;5.896;2022-10-15T10:30:59;16.20;99.90
56240;DHT22;42154;51.992;5.896;2022-10-15T10:33:41;16.20;99.90
56240;DHT22;42154;51.992;5.896;2022-10-15T10:36:31;16.20;99.90
56240;DHT22;42154;51.992;5.896;2022-10-15T10:44:37;16.30;99.90
56240;DHT22;42154;51.992;5.896;2022-10-15T10:49:37;16.20;99.90
56240;DHT22;42154;51.992;5.896;2022-10-15T10:52:31;16.20;99.90
56240;DHT22;42154;51.992;5.896;2022-10-15T10:57:47;16.10;99.90
56240;DHT22;42154;51.992;5.896;2022-10-15T11:00:22;16.10;99.90
56240;DHT22;42154;51.992;5.896;2022-10-15T11:02:51;16.10;99.90
56240;DHT22;42154;51.992;5.896;2022-10-15T11:05:27;16.10;99.90
56240;DHT22;42154;51.992;5.896;2022-10-15T11:11:26;16.20;99.90
56240;DHT22;42154;51.992;5.896;2022-10-15T11:26:57;16.10;99.90
56240;DHT22;42154;51.992;5.896;2022-10-15T11:30:04;16.00;99.90
56240;DHT22;42154;51.992;5.896;2022-10-15T11:33:00;16.10;99.90
56240;DHT22;42154;51.992;5.896;2022-10-15T11:35:50;16.10;99.90
56240;DHT22;42154;51.992;5.896;2022-10-15T11:47:14;16.10;99.90
56240;DHT22;42154;51.992;5.896;2022-10-15T11:52:11;16.20;99.90
56240;DHT22;42154;51.992;5.896;2022-10-15T11:54:42;16.20;99.90
56240;DHT22;42154;51.992;5.896;2022-10-15T11:57:12;16.20;99.90
56240;DHT22;42154;51.992;5.896;2022-10-15T11:59:51;16.30;99.90
56240;DHT22;42154;51.992;5.896;2022-10-15T12:02:22;16.30;99.90
56240;DHT22;42154;51.992;5.896;2022-10-15T12:04:52;16.30;99.90
56240;DHT22;42154;51.992;5.896;2022-10-15T12:07:29;16.30;99.90
56240;DHT22;42154;51.992;5.896;2022-10-15T12:13:30;16.40;99.90
56240;DHT22;42154;51.992;5.896;2022-10-15T12:16:32;16.40;99.90
56240;DHT22;42154;51.992;5.896;2022-10-15T12:32:35;16.50;99.90
56240;DHT22;42154;51.992;5.896;2022-10-15T12:35:04;16.60;99.90
56240;DHT22;42154;51.992;5.896;2022-10-15T12:37:32;16.60;99.90
56240;DHT22;42154;51.992;5.896;2022-10-15T12:43:15;16.70;99.90
56240;DHT22;42154;51.992;5.896;2022-10-15T12:45:54;16.70;99.90
56240;DHT22;42154;51.992;5.896;2022-10-15T12:48:28;16.70;99.90
56240;DHT22;42154;51.992;5.896;2022-10-15T12:53:42;16.90;99.90
56240;DHT22;42154;51.992;5.896;2022-10-15T13:03:52;17.00;99.90
56240;DHT22;42154;51.992;5.896;2022-10-15T13:06:23;17.10;99.90
56240;DHT22;42154;51.992;5.896;2022-10-15T13:09:10;17.10;99.90
56240;DHT22;42154;51.992;5.896;2022-10-15T13:11:53;17.20;99.90
56240;DHT22;42154;51.992;5.896;2022-10-15T13:14:33;17.20;99.90
56240;DHT22;42154;51.992;5.896;2022-10-15T13:17:19;17.30;99.90
56240;DHT22;42154;51.992;5.896;2022-10-15T13:22:22;17.40;99.90
56240;DHT22;42154;51.992;5.896;2022-10-15T13:24:48;17.50;99.90
56240;DHT22;42154;51.992;5.896;2022-10-15T13:29:56;17.60;99.90
56240;DHT22;42154;51.992;5.896;2022-10-15T13:32:23;17.60;99.90
56240;DHT22;42154;51.992;5.896;2022-10-15T13:34:50;17.70;99.90
56240;DHT22;42154;51.992;5.896;2022-10-15T13:37:30;17.70;99.90
56240;DHT22;42154;51.992;5.896;2022-10-15T13:39:57;17.70;99.90
56240;DHT22;42154;51.992;5.896;2022-10-15T13:42:24;17.60;99.90
56240;DHT22;42154;51.992;5.896;2022-10-15T13:45:02;17.70;99.90
56240;DHT22;42154;51.992;5.896;2022-10-15T13:47:36;17.70;99.90
56240;DHT22;42154;51.992;5.896;2022-10-15T13:53:14;17.60;99.90
56240;DHT22;42154;51.992;5.896;2022-10-15T13:55:46;17.60;99.90
56240;DHT22;42154;51.992;5.896;2022-10-15T13:58:24;17.60;99.90
56240;DHT22;42154;51.992;5.896;2022-10-15T14:00:56;17.70;99.90
56240;DHT22;42154;51.992;5.896;2022-10-15T14:03:24;17.60;99.90
56240;DHT22;42154;51.992;5.896;2022-10-15T14:05:52;17.60;99.90
56240;DHT22;42154;51.992;5.896;2022-10-15T14:08:24;17.60;99.90
56240;DHT22;42154;51.992;5.896;2022-10-15T14:10:53;17.60;99.90
56240;DHT22;42154;51.992;5.896;2022-10-15T14:13:20;17.60;99.90
56240;DHT22;42154;51.992;5.896;2022-10-15T14:18:30;17.50;99.90
56240;DHT22;42154;51.992;5.896;2022-10-15T14:20:57;17.40;99.90
56240;DHT22;42154;51.992;5.896;2022-10-15T14:23:24;17.40;99.90
56240;DHT22;42154;51.992;5.896;2022-10-15T14:25:55;17.30;99.90
56240;DHT22;42154;51.992;5.896;2022-10-15T14:28:23;17.20;99.90
56240;DHT22;42154;51.992;5.896;2022-10-15T14:30:49;17.20;99.90
56240;DHT22;42154;51.992;5.896;2022-10-15T14:38:33;17.10;99.90
56240;DHT22;42154;51.992;5.896;2022-10-15T14:41:45;17.10;99.90
56240;DHT22;42154;51.992;5.896;2022-10-15T14:43:45;17.20;99.90
56240;DHT22;42154;51.992;5.896;2022-10-15T14:46:23;17.20;99.90
56240;DHT22;42154;51.992;5.896;2022-10-15T14:48:49;17.30;99.90
56240;DHT22;42154;51.992;5.896;2022-10-15T14:51:22;17.40;99.90
56240;DHT22;42154;51.992;5.896;2022-10-15T14:53:49;17.40;99.90
56240;DHT22;42154;51.992;5.896;2022-10-15T14:56:22;17.40;99.90
56240;DHT22;42154;51.992;5.896;2022-10-15T14:58:54;17.40;99.90
56240;DHT22;42154;51.992;5.896;2022-10-15T15:01:21;17.30;99.90
56240;DHT22;42154;51.992;5.896;2022-10-15T15:03:51;17.30;99.90
56240;DHT22;42154;51.992;5.896;2022-10-15T15:06:18;17.30;99.90
56240;DHT22;42154;51.992;5.896;2022-10-15T15:08:43;17.30;99.90
56240;DHT22;42154;51.992;5.896;2022-10-15T15:11:12;17.20;99.90
56240;DHT22;42154;51.992;5.896;2022-10-15T15:13:40;17.20;99.90
56240;DHT22;42154;51.992;5.896;2022-10-15T15:16:08;17.20;99.90
56240;DHT22;42154;51.992;5.896;2022-10-15T15:18:34;17.10;99.90
56240;DHT22;42154;51.992;5.896;2022-10-15T15:21:03;17.10;99.90
56240;DHT22;42154;51.992;5.896;2022-10-15T15:23:29;17.10;99.90
56240;DHT22;42154;51.992;5.896;2022-10-15T15:25:56;17.10;99.90
56240;DHT22;42154;51.992;5.896;2022-10-15T15:28:24;17.00;99.90
56240;DHT22;42154;51.992;5.896;2022-10-15T15:30:56;17.00;99.90
56240;DHT22;42154;51.992;5.896;2022-10-15T15:33:23;17.00;99.90
56240;DHT22;42154;51.992;5.896;2022-10-15T15:35:50;16.90;99.90
56240;DHT22;42154;51.992;5.896;2022-10-15T15:38:22;16.90;99.90
56240;DHT22;42154;51.992;5.896;2022-10-15T15:40:49;16.80;99.90
56240;DHT22;42154;51.992;5.896;2022-10-15T15:43:17;16.80;99.90
56240;DHT22;42154;51.992;5.896;2022-10-15T15:45:43;16.80;99.90
56240;DHT22;42154;51.992;5.896;2022-10-15T15:48:10;16.70;99.90
56240;DHT22;42154;51.992;5.896;2022-10-15T15:50:36;16.70;99.90
56240;DHT22;42154;51.992;5.896;2022-10-15T15:53:03;16.60;99.90
56240;DHT22;42154;51.992;5.896;2022-10-15T15:55:29;16.60;99.90
56240;DHT22;42154;51.992;5.896;2022-10-15T15:57:54;16.60;99.90
56240;DHT22;42154;51.992;5.896;2022-10-15T16:00:20;16.60;99.90
56240;DHT22;42154;51.992;5.896;2022-10-15T16:02:46;16.50;99.90
56240;DHT22;42154;51.992;5.896;2022-10-15T16:05:15;16.60;99.90
56240;DHT22;42154;51.992;5.896;2022-10-15T16:07:41;16.50;99.90
56240;DHT22;42154;51.992;5.896;2022-10-15T16:10:07;16.50;99.90
56240;DHT22;42154;51.992;5.896;2022-10-15T16:12:37;16.40;99.90
56240;DHT22;42154;51.992;5.896;2022-10-15T16:15:04;16.40;99.90
56240;DHT22;42154;51.992;5.896;2022-10-15T16:17:29;16.40;99.90
56240;DHT22;42154;51.992;5.896;2022-10-15T16:19:55;16.30;99.90
56240;DHT22;42154;51.992;5.896;2022-10-15T16:22:21;16.30;99.90
56240;DHT22;42154;51.992;5.896;2022-10-15T16:24:46;16.30;99.90
56240;DHT22;42154;51.992;5.896;2022-10-15T16:27:12;16.20;99.90
56240;DHT22;42154;51.992;5.896;2022-10-15T16:29:38;16.20;99.90
56240;DHT22;42154;51.992;5.896;2022-10-15T16:32:04;16.10;99.90
56240;DHT22;42154;51.992;5.896;2022-10-15T16:34:29;16.00;99.90
56240;DHT22;42154;51.992;5.896;2022-10-15T16:36:55;16.00;99.90
56240;DHT22;42154;51.992;5.896;2022-10-15T16:39:21;15.90;99.90
56240;DHT22;42154;51.992;5.896;2022-10-15T16:41:48;15.80;99.90
56240;DHT22;42154;51.992;5.896;2022-10-15T16:44:13;15.80;99.90
56240;DHT22;42154;51.992;5.896;2022-10-15T16:46:39;15.70;99.90
56240;DHT22;42154;51.992;5.896;2022-10-15T16:49:05;15.60;99.90
56240;DHT22;42154;51.992;5.896;2022-10-15T16:51:31;15.60;99.90
56240;DHT22;42154;51.992;5.896;2022-10-15T16:53:57;15.50;99.90
56240;DHT22;42154;51.992;5.896;2022-10-15T16:56:28;15.50;99.90
56240;DHT22;42154;51.992;5.896;2022-10-15T16:58:54;15.40;99.90
56240;DHT22;42154;51.992;5.896;2022-10-15T17:01:23;15.40;99.90
56240;DHT22;42154;51.992;5.896;2022-10-15T17:03:49;15.30;99.90
56240;DHT22;42154;51.992;5.896;2022-10-15T17:06:21;15.20;99.90
56240;DHT22;42154;51.992;5.896;2022-10-15T17:08:50;15.10;99.90
56240;DHT22;42154;51.992;5.896;2022-10-15T17:11:19;15.10;99.90
56240;DHT22;42154;51.992;5.896;2022-10-15T17:13:46;15.00;99.90
56240;DHT22;42154;51.992;5.896;2022-10-15T17:16:15;14.90;99.90
56240;DHT22;42154;51.992;5.896;2022-10-15T17:18:42;14.90;99.90
56240;DHT22;42154;51.992;5.896;2022-10-15T17:21:15;14.80;99.90
56240;DHT22;42154;51.992;5.896;2022-10-15T17:23:41;14.80;99.90
56240;DHT22;42154;51.992;5.896;2022-10-15T17:26:10;14.70;99.90
56240;DHT22;42154;51.992;5.896;2022-10-15T17:28:37;14.70;99.90
56240;DHT22;42154;51.992;5.896;2022-10-15T17:31:11;14.60;99.90
56240;DHT22;42154;51.992;5.896;2022-10-15T17:33:38;14.60;99.90
56240;DHT22;42154;51.992;5.896;2022-10-15T17:36:09;14.50;99.90
56240;DHT22;42154;51.992;5.896;2022-10-15T17:38:36;14.50;99.90
56240;DHT22;42154;51.992;5.896;2022-10-15T17:41:10;14.40;99.90
56240;DHT22;42154;51.992;5.896;2022-10-15T17:43:36;14.40;99.90
56240;DHT22;42154;51.992;5.896;2022-10-15T17:46:04;14.40;99.90
56240;DHT22;42154;51.992;5.896;2022-10-15T17:48:31;14.30;99.90
56240;DHT22;42154;51.992;5.896;2022-10-15T17:51:01;14.30;99.90
56240;DHT22;42154;51.992;5.896;2022-10-15T17:53:27;14.30;99.90
56240;DHT22;42154;51.992;5.896;2022-10-15T17:55:54;14.20;99.90
56240;DHT22;42154;51.992;5.896;2022-10-15T17:58:21;14.20;99.90
56240;DHT22;42154;51.992;5.896;2022-10-15T18:00:51;14.20;99.90
56240;DHT22;42154;51.992;5.896;2022-10-15T18:03:17;14.20;99.90